sensor_id;sensor_type;location;lat;lon;timestamp;pressure;altitude;pressure_sealevel;temperature;humidity
58072;BME280;60383;46.626;18.866;2023-03-23T00:02:25;100314.06;;;9.96;56.80
58072;BME280;60383;46.626;18.866;2023-03-23T00:04:51;100312.88;;;9.80;58.02
58072;BME280;60383;46.626;18.866;2023-03-23T00:07:19;100317.94;;;9.75;58.31
58072;BME280;60383;46.626;18.866;2023-03-23T00:09:50;100307.63;;;9.69;58.37
58072;BME280;60383;46.626;18.866;2023-03-23T00:12:23;100313.25;;;9.67;58.66
58072;BME280;60383;46.626;18.866;2023-03-23T00:15:06;100311.59;;;9.56;58.72
58072;BME280;60383;46.626;18.866;2023-03-23T00:17:32;100304.88;;;9.51;58.76
58072;BME280;60383;46.626;18.866;2023-03-23T00:20:02;100315.53;;;9.44;59.24
58072;BME280;60383;46.626;18.866;2023-03-23T00:22:30;100316.75;;;9.32;59.92
58072;BME280;60383;46.626;18.866;2023-03-23T00:24:56;100308.78;;;9.48;59.21
58072;BME280;60383;46.626;18.866;2023-03-23T00:27:22;100312.78;;;9.54;58.99
58072;BME280;60383;46.626;18.866;2023-03-23T00:29:51;100307.88;;;9.57;58.78
58072;BME280;60383;46.626;18.866;2023-03-23T00:32:21;100312.97;;;9.42;59.46
58072;BME280;60383;46.626;18.866;2023-03-23T00:34:55;100316.75;;;9.32;60.93
58072;BME280;60383;46.626;18.866;2023-03-23T00:37:23;100312.31;;;9.31;60.64
58072;BME280;60383;46.626;18.866;2023-03-23T00:39:49;100316.72;;;9.41;59.03
58072;BME280;60383;46.626;18.866;2023-03-23T00:42:17;100305.59;;;9.53;58.42
58072;BME280;60383;46.626;18.866;2023-03-23T00:44:43;100306.19;;;9.65;58.30
58072;BME280;60383;46.626;18.866;2023-03-23T00:47:12;100302.00;;;9.70;57.74
58072;BME280;60383;46.626;18.866;2023-03-23T00:49:40;100293.16;;;9.77;57.55
58072;BME280;60383;46.626;18.866;2023-03-23T00:52:06;100300.53;;;9.76;57.52
58072;BME280;60383;46.626;18.866;2023-03-23T00:54:32;100300.91;;;9.81;57.20
58072;BME280;60383;46.626;18.866;2023-03-23T00:56:59;100292.53;;;9.65;57.75
58072;BME280;60383;46.626;18.866;2023-03-23T00:59:25;100287.34;;;9.43;59.06
58072;BME280;60383;46.626;18.866;2023-03-23T01:01:51;100291.38;;;9.21;59.87
58072;BME280;60383;46.626;18.866;2023-03-23T01:04:16;100293.22;;;9.21;60.18
58072;BME280;60383;46.626;18.866;2023-03-23T01:06:43;100288.94;;;9.18;60.16
58072;BME280;60383;46.626;18.866;2023-03-23T01:09:13;100289.31;;;9.05;60.05
58072;BME280;60383;46.626;18.866;2023-03-23T01:11:45;100279.50;;;9.03;60.36
58072;BME280;60383;46.626;18.866;2023-03-23T01:14:12;100289.50;;;9.22;59.56
58072;BME280;60383;46.626;18.866;2023-03-23T01:16:38;100285.69;;;9.33;59.01
58072;BME280;60383;46.626;18.866;2023-03-23T01:19:04;100286.34;;;9.45;58.78
58072;BME280;60383;46.626;18.866;2023-03-23T01:21:29;100282.63;;;9.18;60.26
58072;BME280;60383;46.626;18.866;2023-03-23T01:23:55;100282.81;;;9.06;60.70
58072;BME280;60383;46.626;18.866;2023-03-23T01:26:23;100280.50;;;9.11;60.91
58072;BME280;60383;46.626;18.866;2023-03-23T01:28:49;100285.13;;;9.01;61.66
58072;BME280;60383;46.626;18.866;2023-03-23T01:31:20;100285.34;;;8.90;62.26
58072;BME280;60383;46.626;18.866;2023-03-23T01:33:46;100280.44;;;8.93;61.95
58072;BME280;60383;46.626;18.866;2023-03-23T01:36:16;100277.63;;;8.75;62.96
58072;BME280;60383;46.626;18.866;2023-03-23T01:38:45;100278.38;;;8.68;62.93
58072;BME280;60383;46.626;18.866;2023-03-23T01:41:11;100275.34;;;8.71;62.92
58072;BME280;60383;46.626;18.866;2023-03-23T01:44:03;100268.16;;;8.70;62.75
58072;BME280;60383;46.626;18.866;2023-03-23T01:46:32;100269.09;;;8.51;63.30
58072;BME280;60383;46.626;18.866;2023-03-23T01:49:05;100265.50;;;8.50;63.54
58072;BME280;60383;46.626;18.866;2023-03-23T01:54:22;100278.97;;;8.42;64.80
58072;BME280;60383;46.626;18.866;2023-03-23T01:56:58;100282.75;;;8.21;64.95
58072;BME280;60383;46.626;18.866;2023-03-23T01:59:26;100270.09;;;8.40;63.93
58072;BME280;60383;46.626;18.866;2023-03-23T02:01:53;100276.81;;;8.55;63.45
58072;BME280;60383;46.626;18.866;2023-03-23T02:04:20;100272.41;;;8.54;62.85
58072;BME280;60383;46.626;18.866;2023-03-23T02:06:47;100273.13;;;8.46;63.09
58072;BME280;60383;46.626;18.866;2023-03-23T02:09:13;100267.66;;;8.46;63.58
58072;BME280;60383;46.626;18.866;2023-03-23T02:11:42;100270.38;;;8.37;63.60
58072;BME280;60383;46.626;18.866;2023-03-23T02:14:08;100274.56;;;8.21;64.38
58072;BME280;60383;46.626;18.866;2023-03-23T02:19:41;100270.38;;;8.37;63.36
58072;BME280;60383;46.626;18.866;2023-03-23T02:22:27;100275.56;;;8.30;63.50
58072;BME280;60383;46.626;18.866;2023-03-23T02:39:27;100285.34;;;7.83;65.21
58072;BME280;60383;46.626;18.866;2023-03-23T02:41:37;100277.00;;;7.56;66.51
58072;BME280;60383;46.626;18.866;2023-03-23T02:44:06;100281.47;;;7.57;67.32
58072;BME280;60383;46.626;18.866;2023-03-23T02:46:34;100275.19;;;7.76;68.56
58072;BME280;60383;46.626;18.866;2023-03-23T02:49:02;100282.06;;;7.90;67.47
58072;BME280;60383;46.626;18.866;2023-03-23T02:51:29;100279.78;;;7.85;67.12
58072;BME280;60383;46.626;18.866;2023-03-23T02:53:56;100282.91;;;8.10;66.49
58072;BME280;60383;46.626;18.866;2023-03-23T02:56:25;100279.78;;;7.85;66.72
58072;BME280;60383;46.626;18.866;2023-03-23T02:58:53;100277.06;;;7.75;67.13
58072;BME280;60383;46.626;18.866;2023-03-23T03:03:52;100285.09;;;7.77;67.40
58072;BME280;60383;46.626;18.866;2023-03-23T03:09:15;100289.06;;;7.63;69.52
58072;BME280;60383;46.626;18.866;2023-03-23T03:11:49;100281.78;;;7.83;68.33
58072;BME280;60383;46.626;18.866;2023-03-23T03:19:31;100294.69;;;8.00;67.74
58072;BME280;60383;46.626;18.866;2023-03-23T03:21:58;100297.00;;;7.95;67.93
58072;BME280;60383;46.626;18.866;2023-03-23T03:24:27;100294.81;;;8.19;67.63
58072;BME280;60383;46.626;18.866;2023-03-23T03:26:54;100286.75;;;8.46;67.10
58072;BME280;60383;46.626;18.866;2023-03-23T03:29:27;100289.03;;;8.41;66.79
58072;BME280;60383;46.626;18.866;2023-03-23T03:31:56;100292.34;;;8.45;66.95
58072;BME280;60383;46.626;18.866;2023-03-23T03:34:23;100289.50;;;8.46;66.56
58072;BME280;60383;46.626;18.866;2023-03-23T03:36:51;100297.41;;;8.30;66.95
58072;BME280;60383;46.626;18.866;2023-03-23T03:39:18;100303.16;;;8.27;67.09
58072;BME280;60383;46.626;18.866;2023-03-23T03:41:46;100302.13;;;8.38;67.66
58072;BME280;60383;46.626;18.866;2023-03-23T03:44:11;100295.66;;;8.39;67.05
58072;BME280;60383;46.626;18.866;2023-03-23T03:46:37;100288.31;;;8.39;66.82
58072;BME280;60383;46.626;18.866;2023-03-23T03:49:05;100286.75;;;8.46;67.27
58072;BME280;60383;46.626;18.866;2023-03-23T03:51:32;100294.91;;;8.66;66.21
58072;BME280;60383;46.626;18.866;2023-03-23T03:53:58;100296.91;;;8.74;66.38
58072;BME280;60383;46.626;18.866;2023-03-23T03:56:24;100297.81;;;8.55;66.37
58072;BME280;60383;46.626;18.866;2023-03-23T03:58:51;100297.97;;;8.43;66.86
58072;BME280;60383;46.626;18.866;2023-03-23T04:01:21;100304.09;;;8.45;66.58
58072;BME280;60383;46.626;18.866;2023-03-23T04:03:50;100313.31;;;8.44;66.51
58072;BME280;60383;46.626;18.866;2023-03-23T04:06:16;100308.31;;;8.40;66.82
58072;BME280;60383;46.626;18.866;2023-03-23T04:08:42;100316.78;;;8.37;66.88
58072;BME280;60383;46.626;18.866;2023-03-23T04:11:11;100307.84;;;8.35;66.71
58072;BME280;60383;46.626;18.866;2023-03-23T04:13:38;100308.88;;;8.24;67.09
58072;BME280;60383;46.626;18.866;2023-03-23T04:16:04;100306.47;;;8.21;66.66
58072;BME280;60383;46.626;18.866;2023-03-23T04:18:30;100309.47;;;7.88;67.37
58072;BME280;60383;46.626;18.866;2023-03-23T04:20:58;100311.94;;;7.91;68.22
58072;BME280;60383;46.626;18.866;2023-03-23T04:23:25;100308.31;;;8.00;67.98
58072;BME280;60383;46.626;18.866;2023-03-23T04:25:52;100306.63;;;8.09;67.62
58072;BME280;60383;46.626;18.866;2023-03-23T04:28:22;100308.19;;;8.12;67.80
58072;BME280;60383;46.626;18.866;2023-03-23T04:30:50;100304.75;;;8.00;67.02
58072;BME280;60383;46.626;18.866;2023-03-23T04:33:19;100305.31;;;8.04;67.26
58072;BME280;60383;46.626;18.866;2023-03-23T04:35:45;100308.03;;;8.13;67.05
58072;BME280;60383;46.626;18.866;2023-03-23T04:38:14;100297.00;;;7.95;67.00
58072;BME280;60383;46.626;18.866;2023-03-23T04:40:42;100295.84;;;7.78;67.54
58072;BME280;60383;46.626;18.866;2023-03-23T04:43:08;100297.72;;;7.78;67.57
58072;BME280;60383;46.626;18.866;2023-03-23T04:45:34;100297.72;;;7.78;67.92
58072;BME280;60383;46.626;18.866;2023-03-23T04:48:04;100297.56;;;7.79;68.11
58072;BME280;60383;46.626;18.866;2023-03-23T04:50:31;100296.25;;;8.03;68.07
58072;BME280;60383;46.626;18.866;2023-03-23T04:52:59;100299.69;;;8.25;67.92
58072;BME280;60383;46.626;18.866;2023-03-23T04:55:30;100290.78;;;8.42;66.92
58072;BME280;60383;46.626;18.866;2023-03-23T04:57:56;100298.63;;;8.65;66.29
58072;BME280;60383;46.626;18.866;2023-03-23T05:00:25;100295.09;;;8.92;65.25
58072;BME280;60383;46.626;18.866;2023-03-23T05:02:51;100294.16;;;9.11;63.65
58072;BME280;60383;46.626;18.866;2023-03-23T05:05:18;100304.31;;;9.19;62.80
58072;BME280;60383;46.626;18.866;2023-03-23T05:07:44;100302.28;;;9.49;61.84
58072;BME280;60383;46.626;18.866;2023-03-23T05:10:11;100303.56;;;9.73;61.41
58072;BME280;60383;46.626;18.866;2023-03-23T05:12:37;100301.56;;;9.93;60.73
58072;BME280;60383;46.626;18.866;2023-03-23T05:15:04;100288.53;;;10.13;59.69
58072;BME280;60383;46.626;18.866;2023-03-23T05:17:31;100301.56;;;9.93;60.58
58072;BME280;60383;46.626;18.866;2023-03-23T05:19:57;100300.75;;;10.37;59.49
58072;BME280;60383;46.626;18.866;2023-03-23T05:22:26;100299.56;;;10.92;58.11
58072;BME280;60383;46.626;18.866;2023-03-23T05:24:52;100299.59;;;11.35;56.79
58072;BME280;60383;46.626;18.866;2023-03-23T05:27:18;100307.28;;;11.91;54.93
58072;BME280;60383;46.626;18.866;2023-03-23T05:29:45;100307.34;;;12.32;52.95
58072;BME280;60383;46.626;18.866;2023-03-23T05:32:17;100311.09;;;12.64;52.94
58072;BME280;60383;46.626;18.866;2023-03-23T05:34:44;100309.81;;;13.00;52.49
58072;BME280;60383;46.626;18.866;2023-03-23T05:37:10;100309.97;;;13.06;51.83
58072;BME280;60383;46.626;18.866;2023-03-23T05:39:37;100306.22;;;12.91;51.46
58072;BME280;60383;46.626;18.866;2023-03-23T05:42:03;100312.94;;;13.45;51.34
58072;BME280;60383;46.626;18.866;2023-03-23T05:44:29;100306.38;;;13.85;51.73
58072;BME280;60383;46.626;18.866;2023-03-23T05:46:55;100311.16;;;13.60;52.38
58072;BME280;60383;46.626;18.866;2023-03-23T05:49:20;100311.41;;;13.34;53.12
58072;BME280;60383;46.626;18.866;2023-03-23T05:51:46;100310.41;;;13.26;53.81
58072;BME280;60383;46.626;18.866;2023-03-23T05:54:13;100313.44;;;13.00;54.43
58072;BME280;60383;46.626;18.866;2023-03-23T05:56:39;100317.28;;;12.33;55.70
58072;BME280;60383;46.626;18.866;2023-03-23T05:59:05;100315.41;;;12.42;56.21
58072;BME280;60383;46.626;18.866;2023-03-23T06:01:31;100306.63;;;12.55;55.40
58072;BME280;60383;46.626;18.866;2023-03-23T06:03:57;100325.16;;;12.61;54.17
58072;BME280;60383;46.626;18.866;2023-03-23T06:06:24;100326.22;;;12.52;54.20
58072;BME280;60383;46.626;18.866;2023-03-23T06:08:49;100328.13;;;12.35;54.63
58072;BME280;60383;46.626;18.866;2023-03-23T06:11:15;100321.75;;;12.42;55.09
58072;BME280;60383;46.626;18.866;2023-03-23T06:13:41;100318.50;;;12.47;54.46
58072;BME280;60383;46.626;18.866;2023-03-23T06:16:07;100328.78;;;12.61;52.98
58072;BME280;60383;46.626;18.866;2023-03-23T06:18:34;100329.44;;;12.63;52.18
58072;BME280;60383;46.626;18.866;2023-03-23T06:21:03;100323.75;;;12.82;51.40
58072;BME280;60383;46.626;18.866;2023-03-23T06:23:29;100330.78;;;12.92;50.19
58072;BME280;60383;46.626;18.866;2023-03-23T06:25:58;100330.44;;;12.96;50.95
58072;BME280;60383;46.626;18.866;2023-03-23T06:28:24;100330.59;;;12.94;51.52
58072;BME280;60383;46.626;18.866;2023-03-23T06:30:49;100342.16;;;12.81;51.20
58072;BME280;60383;46.626;18.866;2023-03-23T06:33:15;100340.06;;;12.91;51.70
58072;BME280;60383;46.626;18.866;2023-03-23T06:35:40;100344.50;;;13.17;55.60
58072;BME280;60383;46.626;18.866;2023-03-23T06:38:06;100339.75;;;13.42;52.97
58072;BME280;60383;46.626;18.866;2023-03-23T06:40:31;100347.31;;;13.49;50.05
58072;BME280;60383;46.626;18.866;2023-03-23T06:42:57;100345.19;;;13.59;49.97
58072;BME280;60383;46.626;18.866;2023-03-23T06:45:24;100342.09;;;13.62;49.92
58072;BME280;60383;46.626;18.866;2023-03-23T06:47:50;100341.59;;;13.58;50.20
58072;BME280;60383;46.626;18.866;2023-03-23T06:50:16;100350.03;;;13.88;49.44
58072;BME280;60383;46.626;18.866;2023-03-23T06:52:48;100341.03;;;13.95;49.77
58072;BME280;60383;46.626;18.866;2023-03-23T06:55:15;100341.50;;;14.06;49.67
58072;BME280;60383;46.626;18.866;2023-03-23T06:57:41;100337.22;;;14.04;49.25
58072;BME280;60383;46.626;18.866;2023-03-23T07:00:08;100347.75;;;14.24;49.30
58072;BME280;60383;46.626;18.866;2023-03-23T07:02:37;100333.66;;;14.42;48.84
58072;BME280;60383;46.626;18.866;2023-03-23T07:05:02;100346.06;;;14.14;49.62
58072;BME280;60383;46.626;18.866;2023-03-23T07:07:29;100344.25;;;14.30;49.94
58072;BME280;60383;46.626;18.866;2023-03-23T07:09:54;100340.41;;;14.39;49.61
58072;BME280;60383;46.626;18.866;2023-03-23T07:12:20;100342.16;;;14.09;50.29
58072;BME280;60383;46.626;18.866;2023-03-23T07:14:46;100338.91;;;14.51;49.78
58072;BME280;60383;46.626;18.866;2023-03-23T07:17:12;100334.72;;;13.86;50.67
58072;BME280;60383;46.626;18.866;2023-03-23T07:19:38;100340.16;;;14.26;50.63
58072;BME280;60383;46.626;18.866;2023-03-23T07:22:05;100340.09;;;14.34;51.18
58072;BME280;60383;46.626;18.866;2023-03-23T07:24:30;100337.88;;;14.52;49.98
58072;BME280;60383;46.626;18.866;2023-03-23T07:26:56;100342.94;;;14.64;49.97
58072;BME280;60383;46.626;18.866;2023-03-23T07:29:22;100344.13;;;14.84;50.21
58072;BME280;60383;46.626;18.866;2023-03-23T07:31:47;100344.00;;;15.16;49.73
58072;BME280;60383;46.626;18.866;2023-03-23T07:34:13;100342.59;;;15.20;50.28
58072;BME280;60383;46.626;18.866;2023-03-23T07:36:38;100334.19;;;15.13;49.67
58072;BME280;60383;46.626;18.866;2023-03-23T07:39:04;100342.47;;;15.13;49.95
58072;BME280;60383;46.626;18.866;2023-03-23T07:41:33;100342.94;;;15.17;50.10
58072;BME280;60383;46.626;18.866;2023-03-23T07:43:59;100344.63;;;14.88;51.12
58072;BME280;60383;46.626;18.866;2023-03-23T07:46:24;100340.28;;;15.24;51.33
58072;BME280;60383;46.626;18.866;2023-03-23T07:48:49;100345.63;;;15.25;51.45
58072;BME280;60383;46.626;18.866;2023-03-23T07:51:15;100349.19;;;15.71;49.40
58072;BME280;60383;46.626;18.866;2023-03-23T07:53:44;100343.75;;;15.77;50.91
58072;BME280;60383;46.626;18.866;2023-03-23T07:56:14;100350.97;;;15.93;49.95
58072;BME280;60383;46.626;18.866;2023-03-23T07:58:42;100351.81;;;15.94;49.89
58072;BME280;60383;46.626;18.866;2023-03-23T08:01:09;100343.50;;;16.09;48.72
58072;BME280;60383;46.626;18.866;2023-03-23T08:03:35;100347.00;;;15.66;49.59
58072;BME280;60383;46.626;18.866;2023-03-23T08:06:00;100346.25;;;16.31;49.65
58072;BME280;60383;46.626;18.866;2023-03-23T08:08:26;100344.03;;;16.63;49.02
58072;BME280;60383;46.626;18.866;2023-03-23T08:10:51;100348.88;;;16.17;48.34
58072;BME280;60383;46.626;18.866;2023-03-23T08:13:17;100344.28;;;16.68;47.77
58072;BME280;60383;46.626;18.866;2023-03-23T08:15:43;100350.25;;;16.93;48.11
58072;BME280;60383;46.626;18.866;2023-03-23T08:18:10;100343.56;;;17.09;46.05
58072;BME280;60383;46.626;18.866;2023-03-23T08:20:36;100345.13;;;17.18;45.70
58072;BME280;60383;46.626;18.866;2023-03-23T08:23:03;100340.03;;;17.29;45.35
58072;BME280;60383;46.626;18.866;2023-03-23T08:25:30;100338.53;;;17.19;44.38
58072;BME280;60383;46.626;18.866;2023-03-23T08:27:57;100340.91;;;17.29;44.43
58072;BME280;60383;46.626;18.866;2023-03-23T08:30:22;100345.09;;;17.53;44.41
58072;BME280;60383;46.626;18.866;2023-03-23T08:32:50;100346.16;;;17.59;42.83
58072;BME280;60383;46.626;18.866;2023-03-23T08:35:16;100345.59;;;17.70;42.50
58072;BME280;60383;46.626;18.866;2023-03-23T08:37:43;100349.31;;;17.91;41.88
58072;BME280;60383;46.626;18.866;2023-03-23T08:40:10;100340.84;;;18.06;42.30
58072;BME280;60383;46.626;18.866;2023-03-23T08:42:41;100359.84;;;18.16;41.30
58072;BME280;60383;46.626;18.866;2023-03-23T08:45:09;100352.59;;;18.28;41.68
58072;BME280;60383;46.626;18.866;2023-03-23T08:47:36;100361.19;;;18.54;41.25
58072;BME280;60383;46.626;18.866;2023-03-23T08:50:07;100359.25;;;18.47;39.72
58072;BME280;60383;46.626;18.866;2023-03-23T08:52:33;100365.22;;;18.58;39.47
58072;BME280;60383;46.626;18.866;2023-03-23T08:54:58;100354.16;;;18.71;40.85
58072;BME280;60383;46.626;18.866;2023-03-23T08:57:26;100353.72;;;18.67;40.58
58072;BME280;60383;46.626;18.866;2023-03-23T08:59:52;100354.38;;;18.70;38.45
58072;BME280;60383;46.626;18.866;2023-03-23T09:02:20;100355.00;;;18.72;37.21
58072;BME280;60383;46.626;18.866;2023-03-23T09:04:46;100349.25;;;18.87;37.77
58072;BME280;60383;46.626;18.866;2023-03-23T09:07:12;100354.59;;;18.81;37.34
58072;BME280;60383;46.626;18.866;2023-03-23T09:09:40;100356.47;;;18.54;36.34
58072;BME280;60383;46.626;18.866;2023-03-23T09:12:06;100354.38;;;18.76;36.80
58072;BME280;60383;46.626;18.866;2023-03-23T09:14:34;100352.06;;;18.93;36.80
58072;BME280;60383;46.626;18.866;2023-03-23T09:16:59;100358.66;;;18.92;36.17
58072;BME280;60383;46.626;18.866;2023-03-23T09:19:26;100353.13;;;18.92;35.96
58072;BME280;60383;46.626;18.866;2023-03-23T09:21:51;100351.78;;;18.75;36.56
58072;BME280;60383;46.626;18.866;2023-03-23T09:24:17;100352.69;;;19.02;35.50
58072;BME280;60383;46.626;18.866;2023-03-23T09:26:44;100350.69;;;19.36;35.46
58072;BME280;60383;46.626;18.866;2023-03-23T09:29:10;100353.03;;;19.46;34.86
58072;BME280;60383;46.626;18.866;2023-03-23T09:31:38;100350.44;;;19.58;35.59
58072;BME280;60383;46.626;18.866;2023-03-23T09:34:06;100350.66;;;19.50;35.14
58072;BME280;60383;46.626;18.866;2023-03-23T09:36:36;100352.69;;;19.74;34.38
58072;BME280;60383;46.626;18.866;2023-03-23T09:39:01;100351.44;;;19.70;35.34
58072;BME280;60383;46.626;18.866;2023-03-23T09:50:24;100333.56;;;20.05;33.78
58072;BME280;60383;46.626;18.866;2023-03-23T09:52:37;100328.38;;;20.15;33.94
58072;BME280;60383;46.626;18.866;2023-03-23T09:55:03;100333.88;;;20.22;34.05
58072;BME280;60383;46.626;18.866;2023-03-23T10:00:13;100334.31;;;19.80;34.68
58072;BME280;60383;46.626;18.866;2023-03-23T10:02:49;100334.78;;;19.70;35.75
58072;BME280;60383;46.626;18.866;2023-03-23T10:05:34;100315.28;;;19.84;34.46
58072;BME280;60383;46.626;18.866;2023-03-23T10:08:02;100322.13;;;19.81;34.50
58072;BME280;60383;46.626;18.866;2023-03-23T10:10:43;100317.03;;;20.17;34.34
58072;BME280;60383;46.626;18.866;2023-03-23T10:15:49;100302.38;;;20.60;33.53
58072;BME280;60383;46.626;18.866;2023-03-23T10:20:58;100299.94;;;20.45;35.16
58072;BME280;60383;46.626;18.866;2023-03-23T10:26:22;100298.84;;;20.21;34.85
58072;BME280;60383;46.626;18.866;2023-03-23T10:28:56;100288.94;;;20.82;34.07
58072;BME280;60383;46.626;18.866;2023-03-23T10:31:25;100274.94;;;20.38;34.77
58072;BME280;60383;46.626;18.866;2023-03-23T10:33:57;100273.13;;;20.51;33.96
58072;BME280;60383;46.626;18.866;2023-03-23T10:39:20;100284.88;;;21.03;33.22
58072;BME280;60383;46.626;18.866;2023-03-23T10:41:47;100277.81;;;20.32;34.10
58072;BME280;60383;46.626;18.866;2023-03-23T10:44:24;100278.88;;;20.81;32.90
58072;BME280;60383;46.626;18.866;2023-03-23T10:46:59;100290.47;;;20.78;32.78
58072;BME280;60383;46.626;18.866;2023-03-23T10:49:30;100277.56;;;20.84;33.22
58072;BME280;60383;46.626;18.866;2023-03-23T10:52:34;100269.97;;;20.72;33.21
58072;BME280;60383;46.626;18.866;2023-03-23T10:57:33;100266.03;;;20.80;32.97
58072;BME280;60383;46.626;18.866;2023-03-23T11:02:57;100267.75;;;19.99;33.43
58072;BME280;60383;46.626;18.866;2023-03-23T11:05:27;100262.50;;;20.16;34.15
58072;BME280;60383;46.626;18.866;2023-03-23T11:07:59;100253.25;;;20.47;34.21
58072;BME280;60383;46.626;18.866;2023-03-23T11:10:36;100248.41;;;19.72;34.30
58072;BME280;60383;46.626;18.866;2023-03-23T11:13:02;100243.41;;;20.26;34.26
58072;BME280;60383;46.626;18.866;2023-03-23T11:15:35;100250.41;;;20.35;33.09
58072;BME280;60383;46.626;18.866;2023-03-23T11:18:10;100247.34;;;20.11;33.87
58072;BME280;60383;46.626;18.866;2023-03-23T11:20:48;100249.13;;;20.82;33.17
58072;BME280;60383;46.626;18.866;2023-03-23T11:23:19;100252.53;;;20.84;32.64
58072;BME280;60383;46.626;18.866;2023-03-23T11:28:37;100229.28;;;21.34;32.82
58072;BME280;60383;46.626;18.866;2023-03-23T11:31:06;100233.78;;;20.22;33.11
58072;BME280;60383;46.626;18.866;2023-03-23T11:36:13;100234.00;;;20.27;34.46
58072;BME280;60383;46.626;18.866;2023-03-23T11:38:40;100234.97;;;20.58;33.51
58072;BME280;60383;46.626;18.866;2023-03-23T11:41:11;100237.91;;;20.63;32.99
58072;BME280;60383;46.626;18.866;2023-03-23T11:43:40;100214.44;;;20.84;33.49
58072;BME280;60383;46.626;18.866;2023-03-23T11:46:16;100211.22;;;20.37;33.58
58072;BME280;60383;46.626;18.866;2023-03-23T11:51:30;100210.75;;;20.40;34.10
58072;BME280;60383;46.626;18.866;2023-03-23T11:54:09;100207.59;;;20.80;33.94
58072;BME280;60383;46.626;18.866;2023-03-23T11:56:39;100208.16;;;20.20;34.56
58072;BME280;60383;46.626;18.866;2023-03-23T11:59:32;100196.63;;;19.91;34.78
58072;BME280;60383;46.626;18.866;2023-03-23T12:23:46;100188.22;;;19.98;34.41
58072;BME280;60383;46.626;18.866;2023-03-23T12:31:39;100184.66;;;19.52;35.11
58072;BME280;60383;46.626;18.866;2023-03-23T12:48:24;100175.38;;;20.47;35.50
58072;BME280;60383;46.626;18.866;2023-03-23T12:51:11;100180.19;;;21.02;33.83
58072;BME280;60383;46.626;18.866;2023-03-23T12:53:58;100183.53;;;21.42;32.86
58072;BME280;60383;46.626;18.866;2023-03-23T12:57:04;100168.13;;;21.58;33.06
58072;BME280;60383;46.626;18.866;2023-03-23T12:59:41;100168.41;;;21.00;33.07
58072;BME280;60383;46.626;18.866;2023-03-23T13:02:36;100165.00;;;20.98;34.13
58072;BME280;60383;46.626;18.866;2023-03-23T13:07:56;100166.50;;;20.82;33.00
58072;BME280;60383;46.626;18.866;2023-03-23T13:10:28;100161.66;;;21.27;32.86
58072;BME280;60383;46.626;18.866;2023-03-23T13:12:55;100159.88;;;21.32;32.25
58072;BME280;60383;46.626;18.866;2023-03-23T13:18:56;100144.16;;;21.38;32.09
58072;BME280;60383;46.626;18.866;2023-03-23T13:22:17;100135.69;;;21.63;32.21
58072;BME280;60383;46.626;18.866;2023-03-23T13:24:24;100129.78;;;21.53;32.86
58072;BME280;60383;46.626;18.866;2023-03-23T13:26:51;100139.47;;;20.64;33.44
58072;BME280;60383;46.626;18.866;2023-03-23T13:29:17;100131.97;;;21.20;33.81
58072;BME280;60383;46.626;18.866;2023-03-23T13:31:46;100144.00;;;21.02;33.04
58072;BME280;60383;46.626;18.866;2023-03-23T13:34:22;100136.00;;;20.50;33.73
58072;BME280;60383;46.626;18.866;2023-03-23T13:36:59;100138.13;;;20.92;33.35
58072;BME280;60383;46.626;18.866;2023-03-23T13:39:29;100134.00;;;21.13;33.34
58072;BME280;60383;46.626;18.866;2023-03-23T13:49:52;100129.91;;;21.16;33.39
58072;BME280;60383;46.626;18.866;2023-03-23T13:57:55;100125.28;;;21.10;33.01
58072;BME280;60383;46.626;18.866;2023-03-23T14:00:43;100120.66;;;20.85;33.25
58072;BME280;60383;46.626;18.866;2023-03-23T14:10:35;100114.31;;;20.96;33.27
58072;BME280;60383;46.626;18.866;2023-03-23T14:13:03;100115.09;;;21.03;33.44
58072;BME280;60383;46.626;18.866;2023-03-23T14:15:36;100114.66;;;21.18;33.21
58072;BME280;60383;46.626;18.866;2023-03-23T14:18:03;100108.94;;;21.13;32.80
58072;BME280;60383;46.626;18.866;2023-03-23T14:20:34;100111.16;;;20.93;33.99
58072;BME280;60383;46.626;18.866;2023-03-23T14:23:01;100106.34;;;20.81;34.72
58072;BME280;60383;46.626;18.866;2023-03-23T14:25:30;100107.50;;;20.55;34.88
58072;BME280;60383;46.626;18.866;2023-03-23T14:27:57;100104.53;;;20.31;34.93
58072;BME280;60383;46.626;18.866;2023-03-23T14:30:26;100103.66;;;20.12;35.46
58072;BME280;60383;46.626;18.866;2023-03-23T14:32:53;100107.34;;;20.68;34.44
58072;BME280;60383;46.626;18.866;2023-03-23T14:35:31;100099.25;;;20.85;33.86
58072;BME280;60383;46.626;18.866;2023-03-23T14:37:57;100103.59;;;20.37;34.40
58072;BME280;60383;46.626;18.866;2023-03-23T14:40:26;100098.75;;;20.70;34.36
58072;BME280;60383;46.626;18.866;2023-03-23T14:42:55;100107.03;;;20.77;34.24
58072;BME280;60383;46.626;18.866;2023-03-23T14:45:23;100112.03;;;20.49;34.35
58072;BME280;60383;46.626;18.866;2023-03-23T14:47:52;100111.41;;;20.29;35.23
58072;BME280;60383;46.626;18.866;2023-03-23T14:52:48;100108.63;;;20.47;34.84
58072;BME280;60383;46.626;18.866;2023-03-23T14:55:21;100110.22;;;20.18;34.97
58072;BME280;60383;46.626;18.866;2023-03-23T14:57:48;100103.25;;;20.52;34.80
58072;BME280;60383;46.626;18.866;2023-03-23T15:00:27;100108.28;;;20.62;34.33
58072;BME280;60383;46.626;18.866;2023-03-23T15:02:56;100101.94;;;20.55;34.36
58072;BME280;60383;46.626;18.866;2023-03-23T15:05:31;100101.22;;;20.59;34.37
58072;BME280;60383;46.626;18.866;2023-03-23T15:08:04;100101.50;;;19.89;35.11
58072;BME280;60383;46.626;18.866;2023-03-23T15:10:30;100089.84;;;20.24;35.05